This is the latest recevied weather packets stored in our database for station/object AC1IX. If no packets are shown the sender has not sent any weather packets the latest 10 day(s).
| Time | Temp. | Humidity | Pressure | Rain* | Wind** | Luminosity | Snow |
|---|---|---|---|---|---|---|---|
| 1777476524 | 19.44° C | 51% | 1013.5 hPa | 0 mm | - | 753 W/m² | - |
| 1777476220 | 19.44° C | 52% | 1013.3 hPa | 0 mm | - | 753 W/m² | - |
| 1777475916 | 18.89° C | 52% | 1013.6 hPa | 0 mm | - | 724 W/m² | - |
| 1777475612 | 20° C | 50% | 1013.5 hPa | 0 mm | - | 777 W/m² | - |
| 1777475309 | 19.44° C | 51% | 1013.5 hPa | 0 mm | - | 771 W/m² | - |
| 1777475004 | 18.89° C | 53% | 1013.7 hPa | 0 mm | - | 773 W/m² | - |
| 1777474701 | 17.78° C | 53% | 1013.4 hPa | 0 mm | - | 769 W/m² | - |
| 1777474397 | 18.33° C | 52% | 1013.6 hPa | 0 mm | - | 806 W/m² | - |
| 1777474094 | 17.78° C | 53% | 1013.8 hPa | 0 mm | - | 845 W/m² | - |
| 1777473792 | 17.78° C | 56% | 1014.1 hPa | 0 mm | - | 837 W/m² | - |
| 1777473488 | 17.78° C | 55% | 1014.1 hPa | 0 mm | - | 803 W/m² | - |
| 1777473183 | 17.78° C | 55% | 1014.4 hPa | 0 mm | - | 750 W/m² | - |
| 1777472881 | 17.78° C | 53% | 1014.4 hPa | 0 mm | - | 806 W/m² | - |
| 1777472577 | 17.22° C | 54% | 1014.5 hPa | 0 mm | - | 835 W/m² | - |
| 1777472274 | 17.78° C | 54% | 1014.7 hPa | 0 mm | - | 796 W/m² | - |
| 1777471970 | 17.22° C | 56% | 1014.7 hPa | 0 mm | - | 742 W/m² | - |
| 1777471667 | 16.67° C | 55% | 1014.7 hPa | 0 mm | - | 730 W/m² | - |
| 1777471363 | 16.67° C | 54% | 1015.1 hPa | 0 mm | - | 681 W/m² | - |
| 1777471060 | 16.67° C | 55% | 1015 hPa | 0 mm | - | 682 W/m² | - |
| 1777470756 | 17.22° C | 54% | 1015.2 hPa | 0 mm | - | 708 W/m² | - |
| 1777470453 | 16.67° C | 54% | 1015.1 hPa | 0 mm | - | 704 W/m² | - |
| 1777470150 | 16.11° C | 56% | 1015.3 hPa | 0 mm | - | 234 W/m² | - |
| 1777469846 | 15.56° C | 58% | 1015.6 hPa | 0 mm | - | 687 W/m² | - |
| 1777469542 | 16.11° C | 57% | 1015.6 hPa | 0 mm | - | 668 W/m² | - |
| 1777469242 | 16.11° C | 56% | 1015.6 hPa | 0 mm | - | 633 W/m² | - |
* Rain latest hour (hover to see other rain measurements)
** Current wind speed in m/s (hover to see current wind gust speed)